Terminal Aerodrome Forecast
Issued by NWS

Home | Current Version | Previous Version | Text Only | Print | Product List | Glossary On
Versions: 1 2 3 4 5 6 7 8 9 10 11 12 13 14 15 16 17 18 19
000
FTUS43 KSGF 041000 AAB
TAFBBG
TAF AMD
KBBG 041001Z 0410/0506 00000KT 6SM BR OVC025
      TEMPO 0411/0413 1SM BR SCT002 SCT025
     FM041500 12005KT P6SM SCT050
     FM050000 VRB03KT P6SM SKC=

USA.gov is the U.S. government's official web portal to all federal, state and local government web resources and services.